sensor_id;sensor_type;location;lat;lon;timestamp;P1;durP1;ratioP1;P2;durP2;ratioP2
46651;SDS011;32377;52.182;5.398;2022-07-21T00:00:48;16.08;;;12.25;;
46651;SDS011;32377;52.182;5.398;2022-07-21T00:03:14;14.48;;;12.27;;
46651;SDS011;32377;52.182;5.398;2022-07-21T00:05:39;18.95;;;11.43;;
46651;SDS011;32377;52.182;5.398;2022-07-21T00:08:05;15.15;;;11.75;;
46651;SDS011;32377;52.182;5.398;2022-07-21T00:10:30;15.60;;;12.70;;
46651;SDS011;32377;52.182;5.398;2022-07-21T00:12:56;17.52;;;12.98;;
46651;SDS011;32377;52.182;5.398;2022-07-21T00:15:23;22.02;;;13.00;;
46651;SDS011;32377;52.182;5.398;2022-07-21T00:17:50;21.80;;;15.18;;
46651;SDS011;32377;52.182;5.398;2022-07-21T00:20:17;21.15;;;15.13;;
46651;SDS011;32377;52.182;5.398;2022-07-21T00:22:44;22.00;;;15.50;;
46651;SDS011;32377;52.182;5.398;2022-07-21T00:25:10;19.80;;;16.10;;
46651;SDS011;32377;52.182;5.398;2022-07-21T00:27:37;20.60;;;16.92;;
46651;SDS011;32377;52.182;5.398;2022-07-21T00:30:03;19.70;;;16.30;;
46651;SDS011;32377;52.182;5.398;2022-07-21T00:32:31;21.58;;;16.45;;
46651;SDS011;32377;52.182;5.398;2022-07-21T00:34:57;20.52;;;14.85;;
46651;SDS011;32377;52.182;5.398;2022-07-21T00:37:22;17.83;;;14.93;;
46651;SDS011;32377;52.182;5.398;2022-07-21T00:39:52;19.67;;;14.70;;
46651;SDS011;32377;52.182;5.398;2022-07-21T00:42:29;17.02;;;12.50;;
46651;SDS011;32377;52.182;5.398;2022-07-21T00:44:56;15.45;;;12.60;;
46651;SDS011;32377;52.182;5.398;2022-07-21T00:47:23;15.23;;;13.00;;
46651;SDS011;32377;52.182;5.398;2022-07-21T00:49:50;17.30;;;12.75;;
46651;SDS011;32377;52.182;5.398;2022-07-21T00:52:16;16.98;;;12.32;;
46651;SDS011;32377;52.182;5.398;2022-07-21T00:54:42;16.83;;;12.27;;
46651;SDS011;32377;52.182;5.398;2022-07-21T00:57:08;18.45;;;13.25;;
46651;SDS011;32377;52.182;5.398;2022-07-21T00:59:34;15.90;;;12.57;;
46651;SDS011;32377;52.182;5.398;2022-07-21T01:02:00;16.67;;;12.45;;
46651;SDS011;32377;52.182;5.398;2022-07-21T01:04:26;16.63;;;13.30;;
46651;SDS011;32377;52.182;5.398;2022-07-21T01:06:52;14.88;;;11.63;;
46651;SDS011;32377;52.182;5.398;2022-07-21T01:09:19;13.27;;;11.82;;
46651;SDS011;32377;52.182;5.398;2022-07-21T01:11:45;14.10;;;11.48;;
46651;SDS011;32377;52.182;5.398;2022-07-21T01:14:12;15.23;;;11.68;;
46651;SDS011;32377;52.182;5.398;2022-07-21T01:16:38;16.65;;;12.07;;
46651;SDS011;32377;52.182;5.398;2022-07-21T01:19:05;15.80;;;11.45;;
46651;SDS011;32377;52.182;5.398;2022-07-21T01:21:33;13.38;;;10.88;;
46651;SDS011;32377;52.182;5.398;2022-07-21T01:24:00;15.52;;;11.13;;
46651;SDS011;32377;52.182;5.398;2022-07-21T01:26:27;14.00;;;11.20;;
46651;SDS011;32377;52.182;5.398;2022-07-21T01:28:55;16.60;;;10.90;;
46651;SDS011;32377;52.182;5.398;2022-07-21T01:31:21;14.60;;;11.40;;
46651;SDS011;32377;52.182;5.398;2022-07-21T01:33:46;14.27;;;11.15;;
46651;SDS011;32377;52.182;5.398;2022-07-21T01:36:12;15.15;;;11.00;;
46651;SDS011;32377;52.182;5.398;2022-07-21T01:38:37;13.23;;;10.63;;
46651;SDS011;32377;52.182;5.398;2022-07-21T01:41:22;12.75;;;10.98;;
46651;SDS011;32377;52.182;5.398;2022-07-21T01:44:03;13.93;;;11.13;;
46651;SDS011;32377;52.182;5.398;2022-07-21T01:46:31;13.93;;;10.90;;
46651;SDS011;32377;52.182;5.398;2022-07-21T01:48:59;14.20;;;10.80;;
46651;SDS011;32377;52.182;5.398;2022-07-21T01:51:25;14.77;;;11.48;;
46651;SDS011;32377;52.182;5.398;2022-07-21T01:53:51;13.32;;;10.95;;
46651;SDS011;32377;52.182;5.398;2022-07-21T01:56:21;13.50;;;11.00;;
46651;SDS011;32377;52.182;5.398;2022-07-21T01:58:48;15.77;;;12.02;;
46651;SDS011;32377;52.182;5.398;2022-07-21T02:01:16;15.25;;;11.35;;
46651;SDS011;32377;52.182;5.398;2022-07-21T02:03:43;14.70;;;11.45;;
46651;SDS011;32377;52.182;5.398;2022-07-21T02:06:09;13.90;;;11.82;;
46651;SDS011;32377;52.182;5.398;2022-07-21T02:08:35;14.35;;;11.10;;
46651;SDS011;32377;52.182;5.398;2022-07-21T02:11:01;14.77;;;12.40;;
46651;SDS011;32377;52.182;5.398;2022-07-21T02:13:27;17.30;;;11.98;;
46651;SDS011;32377;52.182;5.398;2022-07-21T02:15:53;13.93;;;12.07;;
46651;SDS011;32377;52.182;5.398;2022-07-21T02:18:18;15.35;;;11.88;;
46651;SDS011;32377;52.182;5.398;2022-07-21T02:20:44;14.50;;;12.68;;
46651;SDS011;32377;52.182;5.398;2022-07-21T02:23:12;16.67;;;11.60;;
46651;SDS011;32377;52.182;5.398;2022-07-21T02:25:41;15.27;;;12.27;;
46651;SDS011;32377;52.182;5.398;2022-07-21T02:28:06;17.27;;;11.63;;
46651;SDS011;32377;52.182;5.398;2022-07-21T02:30:32;16.00;;;11.65;;
46651;SDS011;32377;52.182;5.398;2022-07-21T02:32:58;14.15;;;11.75;;
46651;SDS011;32377;52.182;5.398;2022-07-21T02:35:23;14.25;;;11.55;;
46651;SDS011;32377;52.182;5.398;2022-07-21T02:37:49;23.35;;;12.73;;
46651;SDS011;32377;52.182;5.398;2022-07-21T02:40:14;16.15;;;11.68;;
46651;SDS011;32377;52.182;5.398;2022-07-21T02:42:40;17.67;;;12.25;;
46651;SDS011;32377;52.182;5.398;2022-07-21T02:45:06;14.45;;;11.98;;
46651;SDS011;32377;52.182;5.398;2022-07-21T02:47:46;15.73;;;12.07;;
46651;SDS011;32377;52.182;5.398;2022-07-21T02:50:16;16.38;;;13.05;;
46651;SDS011;32377;52.182;5.398;2022-07-21T02:52:43;16.17;;;12.50;;
46651;SDS011;32377;52.182;5.398;2022-07-21T02:55:09;16.63;;;12.20;;
46651;SDS011;32377;52.182;5.398;2022-07-21T02:57:35;15.30;;;11.68;;
46651;SDS011;32377;52.182;5.398;2022-07-21T03:00:01;16.95;;;12.52;;
46651;SDS011;32377;52.182;5.398;2022-07-21T03:02:27;18.15;;;12.70;;
46651;SDS011;32377;52.182;5.398;2022-07-21T03:04:53;21.63;;;12.25;;
46651;SDS011;32377;52.182;5.398;2022-07-21T03:07:18;15.20;;;12.32;;
46651;SDS011;32377;52.182;5.398;2022-07-21T03:09:44;16.83;;;12.73;;
46651;SDS011;32377;52.182;5.398;2022-07-21T03:12:10;15.07;;;12.60;;
46651;SDS011;32377;52.182;5.398;2022-07-21T03:14:36;16.17;;;12.70;;
46651;SDS011;32377;52.182;5.398;2022-07-21T03:17:01;17.33;;;13.40;;
46651;SDS011;32377;52.182;5.398;2022-07-21T03:19:27;17.80;;;14.05;;
46651;SDS011;32377;52.182;5.398;2022-07-21T03:21:53;19.85;;;14.07;;
46651;SDS011;32377;52.182;5.398;2022-07-21T03:24:18;19.00;;;14.77;;
46651;SDS011;32377;52.182;5.398;2022-07-21T03:26:44;19.33;;;14.13;;
46651;SDS011;32377;52.182;5.398;2022-07-21T03:29:09;21.70;;;15.95;;
46651;SDS011;32377;52.182;5.398;2022-07-21T03:31:35;20.00;;;16.35;;
46651;SDS011;32377;52.182;5.398;2022-07-21T03:34:00;22.20;;;16.17;;
46651;SDS011;32377;52.182;5.398;2022-07-21T03:36:26;21.58;;;16.35;;
46651;SDS011;32377;52.182;5.398;2022-07-21T03:38:52;22.85;;;17.67;;
46651;SDS011;32377;52.182;5.398;2022-07-21T03:41:17;28.05;;;18.67;;
46651;SDS011;32377;52.182;5.398;2022-07-21T03:43:43;24.20;;;18.80;;
46651;SDS011;32377;52.182;5.398;2022-07-21T03:46:08;25.08;;;18.63;;
46651;SDS011;32377;52.182;5.398;2022-07-21T03:48:34;25.58;;;19.83;;
46651;SDS011;32377;52.182;5.398;2022-07-21T03:50:59;24.95;;;19.13;;
46651;SDS011;32377;52.182;5.398;2022-07-21T03:53:25;22.20;;;19.38;;
46651;SDS011;32377;52.182;5.398;2022-07-21T03:55:50;26.02;;;19.77;;
46651;SDS011;32377;52.182;5.398;2022-07-21T03:58:16;23.23;;;18.80;;
46651;SDS011;32377;52.182;5.398;2022-07-21T04:00:42;26.17;;;20.85;;
46651;SDS011;32377;52.182;5.398;2022-07-21T04:03:09;28.15;;;21.05;;
46651;SDS011;32377;52.182;5.398;2022-07-21T04:05:36;28.45;;;22.30;;
46651;SDS011;32377;52.182;5.398;2022-07-21T04:08:03;28.08;;;21.70;;
46651;SDS011;32377;52.182;5.398;2022-07-21T04:10:31;26.17;;;21.40;;
46651;SDS011;32377;52.182;5.398;2022-07-21T04:12:58;28.58;;;22.90;;
46651;SDS011;32377;52.182;5.398;2022-07-21T04:15:25;31.65;;;22.55;;
46651;SDS011;32377;52.182;5.398;2022-07-21T04:17:51;30.75;;;22.60;;
46651;SDS011;32377;52.182;5.398;2022-07-21T04:20:17;30.52;;;23.45;;
46651;SDS011;32377;52.182;5.398;2022-07-21T04:22:44;30.52;;;23.63;;
46651;SDS011;32377;52.182;5.398;2022-07-21T04:25:10;32.78;;;24.75;;
46651;SDS011;32377;52.182;5.398;2022-07-21T04:27:37;32.38;;;23.48;;
46651;SDS011;32377;52.182;5.398;2022-07-21T04:30:03;34.17;;;24.13;;
46651;SDS011;32377;52.182;5.398;2022-07-21T04:32:31;32.95;;;24.67;;
46651;SDS011;32377;52.182;5.398;2022-07-21T04:34:57;33.25;;;25.33;;
46651;SDS011;32377;52.182;5.398;2022-07-21T04:37:22;32.17;;;24.75;;
46651;SDS011;32377;52.182;5.398;2022-07-21T04:39:48;35.25;;;26.10;;
46651;SDS011;32377;52.182;5.398;2022-07-21T04:42:14;35.25;;;24.02;;
46651;SDS011;32377;52.182;5.398;2022-07-21T04:44:40;32.53;;;24.02;;
46651;SDS011;32377;52.182;5.398;2022-07-21T04:47:05;32.55;;;24.60;;
46651;SDS011;32377;52.182;5.398;2022-07-21T04:49:31;32.40;;;25.02;;
46651;SDS011;32377;52.182;5.398;2022-07-21T04:51:56;34.65;;;25.48;;
46651;SDS011;32377;52.182;5.398;2022-07-21T04:54:22;31.83;;;25.17;;
46651;SDS011;32377;52.182;5.398;2022-07-21T04:56:48;32.50;;;25.05;;
46651;SDS011;32377;52.182;5.398;2022-07-21T04:59:14;35.20;;;26.08;;
46651;SDS011;32377;52.182;5.398;2022-07-21T05:01:39;35.63;;;27.20;;
46651;SDS011;32377;52.182;5.398;2022-07-21T05:04:06;34.90;;;26.60;;
46651;SDS011;32377;52.182;5.398;2022-07-21T05:06:32;35.92;;;26.60;;
46651;SDS011;32377;52.182;5.398;2022-07-21T05:08:58;33.55;;;25.38;;
46651;SDS011;32377;52.182;5.398;2022-07-21T05:11:24;35.40;;;26.00;;
46651;SDS011;32377;52.182;5.398;2022-07-21T05:13:49;35.13;;;26.60;;
46651;SDS011;32377;52.182;5.398;2022-07-21T05:16:15;37.17;;;26.25;;
46651;SDS011;32377;52.182;5.398;2022-07-21T05:18:40;30.33;;;25.15;;
46651;SDS011;32377;52.182;5.398;2022-07-21T05:21:06;32.38;;;25.65;;
46651;SDS011;32377;52.182;5.398;2022-07-21T05:23:32;35.97;;;26.05;;
46651;SDS011;32377;52.182;5.398;2022-07-21T05:25:57;37.13;;;26.45;;
46651;SDS011;32377;52.182;5.398;2022-07-21T05:28:23;36.80;;;27.77;;
46651;SDS011;32377;52.182;5.398;2022-07-21T05:30:48;37.83;;;27.70;;
46651;SDS011;32377;52.182;5.398;2022-07-21T05:33:14;35.55;;;28.10;;
46651;SDS011;32377;52.182;5.398;2022-07-21T05:35:39;38.40;;;28.92;;
46651;SDS011;32377;52.182;5.398;2022-07-21T05:38:05;40.05;;;29.13;;
46651;SDS011;32377;52.182;5.398;2022-07-21T05:40:31;39.28;;;29.80;;
46651;SDS011;32377;52.182;5.398;2022-07-21T05:42:56;45.42;;;30.50;;
46651;SDS011;32377;52.182;5.398;2022-07-21T05:45:22;40.63;;;29.85;;
46651;SDS011;32377;52.182;5.398;2022-07-21T05:47:47;43.63;;;32.92;;
46651;SDS011;32377;52.182;5.398;2022-07-21T05:50:13;47.92;;;32.95;;
46651;SDS011;32377;52.182;5.398;2022-07-21T05:52:39;51.90;;;36.13;;
46651;SDS011;32377;52.182;5.398;2022-07-21T05:55:05;56.25;;;34.20;;
46651;SDS011;32377;52.182;5.398;2022-07-21T05:57:31;47.05;;;34.88;;
46651;SDS011;32377;52.182;5.398;2022-07-21T05:59:57;48.88;;;34.42;;
46651;SDS011;32377;52.182;5.398;2022-07-21T06:02:23;46.10;;;32.33;;
46651;SDS011;32377;52.182;5.398;2022-07-21T06:04:49;45.45;;;32.63;;
46651;SDS011;32377;52.182;5.398;2022-07-21T06:07:15;51.65;;;34.95;;
46651;SDS011;32377;52.182;5.398;2022-07-21T06:09:41;45.85;;;33.78;;
46651;SDS011;32377;52.182;5.398;2022-07-21T06:12:07;46.80;;;34.10;;
46651;SDS011;32377;52.182;5.398;2022-07-21T06:14:32;47.80;;;33.75;;
46651;SDS011;32377;52.182;5.398;2022-07-21T06:16:58;46.15;;;32.42;;
46651;SDS011;32377;52.182;5.398;2022-07-21T06:19:23;45.15;;;32.97;;
46651;SDS011;32377;52.182;5.398;2022-07-21T06:21:49;41.22;;;30.55;;
46651;SDS011;32377;52.182;5.398;2022-07-21T06:24:15;43.97;;;31.92;;
46651;SDS011;32377;52.182;5.398;2022-07-21T06:26:40;42.08;;;30.02;;
46651;SDS011;32377;52.182;5.398;2022-07-21T06:29:06;42.47;;;30.23;;
46651;SDS011;32377;52.182;5.398;2022-07-21T06:31:32;46.75;;;29.95;;
46651;SDS011;32377;52.182;5.398;2022-07-21T06:33:58;43.53;;;28.85;;
46651;SDS011;32377;52.182;5.398;2022-07-21T06:36:24;36.65;;;28.20;;
46651;SDS011;32377;52.182;5.398;2022-07-21T06:38:49;38.22;;;26.90;;
46651;SDS011;32377;52.182;5.398;2022-07-21T06:41:15;42.60;;;28.30;;
46651;SDS011;32377;52.182;5.398;2022-07-21T06:43:41;43.28;;;28.13;;
46651;SDS011;32377;52.182;5.398;2022-07-21T06:46:06;36.05;;;26.02;;
46651;SDS011;32377;52.182;5.398;2022-07-21T06:48:32;37.88;;;25.50;;
46651;SDS011;32377;52.182;5.398;2022-07-21T06:50:57;40.15;;;25.50;;
46651;SDS011;32377;52.182;5.398;2022-07-21T06:53:23;37.10;;;23.95;;
46651;SDS011;32377;52.182;5.398;2022-07-21T06:55:50;34.42;;;23.88;;
46651;SDS011;32377;52.182;5.398;2022-07-21T06:58:20;35.03;;;24.33;;
46651;SDS011;32377;52.182;5.398;2022-07-21T07:00:47;36.88;;;25.60;;
46651;SDS011;32377;52.182;5.398;2022-07-21T07:03:14;41.58;;;26.65;;
46651;SDS011;32377;52.182;5.398;2022-07-21T07:05:40;37.38;;;26.10;;
46651;SDS011;32377;52.182;5.398;2022-07-21T07:08:07;40.03;;;26.42;;
46651;SDS011;32377;52.182;5.398;2022-07-21T07:10:33;40.20;;;27.10;;
46651;SDS011;32377;52.182;5.398;2022-07-21T07:12:59;35.80;;;25.13;;
46651;SDS011;32377;52.182;5.398;2022-07-21T07:15:25;43.50;;;27.30;;
46651;SDS011;32377;52.182;5.398;2022-07-21T07:17:51;45.15;;;27.92;;
46651;SDS011;32377;52.182;5.398;2022-07-21T07:20:17;47.72;;;27.52;;
46651;SDS011;32377;52.182;5.398;2022-07-21T07:22:43;48.25;;;28.60;;
46651;SDS011;32377;52.182;5.398;2022-07-21T07:25:09;46.88;;;26.67;;
46651;SDS011;32377;52.182;5.398;2022-07-21T07:27:34;53.88;;;29.25;;
46651;SDS011;32377;52.182;5.398;2022-07-21T07:30:00;45.67;;;29.23;;
46651;SDS011;32377;52.182;5.398;2022-07-21T07:32:26;48.17;;;31.10;;
46651;SDS011;32377;52.182;5.398;2022-07-21T07:34:52;45.60;;;30.48;;
46651;SDS011;32377;52.182;5.398;2022-07-21T07:37:17;47.25;;;29.42;;
46651;SDS011;32377;52.182;5.398;2022-07-21T07:39:43;60.97;;;31.15;;
46651;SDS011;32377;52.182;5.398;2022-07-21T07:42:09;52.83;;;31.52;;
46651;SDS011;32377;52.182;5.398;2022-07-21T07:44:34;54.78;;;33.20;;
46651;SDS011;32377;52.182;5.398;2022-07-21T07:47:00;52.85;;;32.13;;
46651;SDS011;32377;52.182;5.398;2022-07-21T07:49:29;48.45;;;31.92;;
46651;SDS011;32377;52.182;5.398;2022-07-21T07:51:55;57.15;;;33.97;;
46651;SDS011;32377;52.182;5.398;2022-07-21T07:54:21;52.15;;;34.08;;
46651;SDS011;32377;52.182;5.398;2022-07-21T07:56:47;54.88;;;32.10;;
46651;SDS011;32377;52.182;5.398;2022-07-21T07:59:13;54.75;;;33.25;;
46651;SDS011;32377;52.182;5.398;2022-07-21T08:01:39;59.47;;;33.45;;
46651;SDS011;32377;52.182;5.398;2022-07-21T08:04:04;56.42;;;33.25;;
46651;SDS011;32377;52.182;5.398;2022-07-21T08:06:30;56.00;;;33.15;;
46651;SDS011;32377;52.182;5.398;2022-07-21T08:08:56;59.70;;;34.80;;
46651;SDS011;32377;52.182;5.398;2022-07-21T08:11:21;53.20;;;33.40;;
46651;SDS011;32377;52.182;5.398;2022-07-21T08:13:47;60.92;;;34.22;;
46651;SDS011;32377;52.182;5.398;2022-07-21T08:16:12;59.45;;;35.97;;
46651;SDS011;32377;52.182;5.398;2022-07-21T08:18:40;64.38;;;35.85;;
46651;SDS011;32377;52.182;5.398;2022-07-21T08:21:06;59.05;;;34.80;;
46651;SDS011;32377;52.182;5.398;2022-07-21T08:23:32;64.35;;;37.17;;
46651;SDS011;32377;52.182;5.398;2022-07-21T08:25:58;61.72;;;37.65;;
46651;SDS011;32377;52.182;5.398;2022-07-21T08:28:23;66.03;;;39.35;;
46651;SDS011;32377;52.182;5.398;2022-07-21T08:30:49;63.83;;;35.97;;
46651;SDS011;32377;52.182;5.398;2022-07-21T08:33:15;61.53;;;35.58;;
46651;SDS011;32377;52.182;5.398;2022-07-21T08:35:40;59.90;;;34.65;;
46651;SDS011;32377;52.182;5.398;2022-07-21T08:38:06;53.75;;;32.83;;
46651;SDS011;32377;52.182;5.398;2022-07-21T08:40:37;56.85;;;33.90;;
46651;SDS011;32377;52.182;5.398;2022-07-21T08:43:04;59.50;;;33.53;;
46651;SDS011;32377;52.182;5.398;2022-07-21T08:45:31;57.92;;;34.70;;
46651;SDS011;32377;52.182;5.398;2022-07-21T08:47:57;52.08;;;32.92;;
46651;SDS011;32377;52.182;5.398;2022-07-21T08:50:27;59.58;;;33.42;;
46651;SDS011;32377;52.182;5.398;2022-07-21T08:52:55;56.78;;;32.30;;
46651;SDS011;32377;52.182;5.398;2022-07-21T08:55:20;62.42;;;35.30;;
46651;SDS011;32377;52.182;5.398;2022-07-21T08:57:47;55.47;;;34.15;;
46651;SDS011;32377;52.182;5.398;2022-07-21T09:00:13;54.53;;;35.53;;
46651;SDS011;32377;52.182;5.398;2022-07-21T09:02:39;56.47;;;33.47;;
46651;SDS011;32377;52.182;5.398;2022-07-21T09:05:05;60.75;;;34.35;;
46651;SDS011;32377;52.182;5.398;2022-07-21T09:10:23;55.47;;;32.13;;
46651;SDS011;32377;52.182;5.398;2022-07-21T09:12:51;49.97;;;31.42;;
46651;SDS011;32377;52.182;5.398;2022-07-21T09:15:19;49.95;;;30.75;;
46651;SDS011;32377;52.182;5.398;2022-07-21T09:18:02;50.38;;;29.80;;
46651;SDS011;32377;52.182;5.398;2022-07-21T09:20:30;43.45;;;28.42;;
46651;SDS011;32377;52.182;5.398;2022-07-21T09:23:02;50.40;;;30.05;;
46651;SDS011;32377;52.182;5.398;2022-07-21T09:25:36;35.97;;;23.60;;
46651;SDS011;32377;52.182;5.398;2022-07-21T09:28:21;35.17;;;18.42;;
46651;SDS011;32377;52.182;5.398;2022-07-21T09:35:54;26.75;;;14.02;;
46651;SDS011;32377;52.182;5.398;2022-07-21T09:38:25;21.25;;;13.23;;
46651;SDS011;32377;52.182;5.398;2022-07-21T09:40:53;19.90;;;12.15;;
46651;SDS011;32377;52.182;5.398;2022-07-21T09:43:55;14.10;;;11.18;;
46651;SDS011;32377;52.182;5.398;2022-07-21T09:48:53;11.32;;;9.40;;
46651;SDS011;32377;52.182;5.398;2022-07-21T09:53:58;16.13;;;9.98;;
46651;SDS011;32377;52.182;5.398;2022-07-21T09:56:27;15.52;;;10.00;;
46651;SDS011;32377;52.182;5.398;2022-07-21T09:58:55;13.48;;;9.70;;
46651;SDS011;32377;52.182;5.398;2022-07-21T10:01:23;12.85;;;9.98;;
46651;SDS011;32377;52.182;5.398;2022-07-21T10:03:49;10.40;;;9.00;;
46651;SDS011;32377;52.182;5.398;2022-07-21T10:06:17;12.90;;;9.63;;
46651;SDS011;32377;52.182;5.398;2022-07-21T10:08:45;11.35;;;8.52;;
46651;SDS011;32377;52.182;5.398;2022-07-21T10:11:12;12.82;;;8.18;;
46651;SDS011;32377;52.182;5.398;2022-07-21T10:13:38;10.05;;;8.88;;
46651;SDS011;32377;52.182;5.398;2022-07-21T10:16:05;12.05;;;9.02;;
46651;SDS011;32377;52.182;5.398;2022-07-21T10:19:16;12.95;;;8.43;;
46651;SDS011;32377;52.182;5.398;2022-07-21T10:24:29;8.23;;;7.15;;
46651;SDS011;32377;52.182;5.398;2022-07-21T10:27:06;8.75;;;7.13;;
46651;SDS011;32377;52.182;5.398;2022-07-21T10:29:53;8.75;;;7.32;;
46651;SDS011;32377;52.182;5.398;2022-07-21T10:32:25;10.65;;;7.88;;
46651;SDS011;32377;52.182;5.398;2022-07-21T10:34:53;9.63;;;6.95;;
46651;SDS011;32377;52.182;5.398;2022-07-21T10:40:04;9.48;;;7.88;;
46651;SDS011;32377;52.182;5.398;2022-07-21T10:42:45;8.07;;;7.20;;
46651;SDS011;32377;52.182;5.398;2022-07-21T10:45:32;9.55;;;8.00;;
46651;SDS011;32377;52.182;5.398;2022-07-21T10:48:03;10.25;;;7.60;;
46651;SDS011;32377;52.182;5.398;2022-07-21T10:50:31;10.52;;;8.82;;
46651;SDS011;32377;52.182;5.398;2022-07-21T10:53:02;11.60;;;8.63;;
46651;SDS011;32377;52.182;5.398;2022-07-21T10:55:30;12.18;;;9.27;;
46651;SDS011;32377;52.182;5.398;2022-07-21T11:03:20;13.35;;;11.02;;
46651;SDS011;32377;52.182;5.398;2022-07-21T11:11:33;16.00;;;12.73;;
46651;SDS011;32377;52.182;5.398;2022-07-21T11:21:57;15.77;;;11.55;;
46651;SDS011;32377;52.182;5.398;2022-07-21T11:24:25;14.38;;;11.05;;
46651;SDS011;32377;52.182;5.398;2022-07-21T11:26:58;13.88;;;11.20;;
46651;SDS011;32377;52.182;5.398;2022-07-21T11:29:29;18.67;;;12.40;;
46651;SDS011;32377;52.182;5.398;2022-07-21T11:31:56;12.70;;;10.98;;
46651;SDS011;32377;52.182;5.398;2022-07-21T11:34:23;15.02;;;11.32;;
46651;SDS011;32377;52.182;5.398;2022-07-21T11:36:59;17.85;;;12.43;;
46651;SDS011;32377;52.182;5.398;2022-07-21T11:39:26;15.38;;;12.20;;
46651;SDS011;32377;52.182;5.398;2022-07-21T11:41:52;14.10;;;11.13;;
46651;SDS011;32377;52.182;5.398;2022-07-21T11:44:23;16.05;;;11.30;;
46651;SDS011;32377;52.182;5.398;2022-07-21T11:46:51;14.48;;;11.63;;
46651;SDS011;32377;52.182;5.398;2022-07-21T11:49:21;13.45;;;10.13;;
46651;SDS011;32377;52.182;5.398;2022-07-21T11:51:48;15.07;;;10.68;;
46651;SDS011;32377;52.182;5.398;2022-07-21T11:54:26;11.85;;;9.77;;
46651;SDS011;32377;52.182;5.398;2022-07-21T11:56:56;12.18;;;9.68;;
46651;SDS011;32377;52.182;5.398;2022-07-21T11:59:22;16.65;;;10.45;;
46651;SDS011;32377;52.182;5.398;2022-07-21T12:01:53;11.90;;;8.93;;
46651;SDS011;32377;52.182;5.398;2022-07-21T12:07:01;13.73;;;8.38;;
46651;SDS011;32377;52.182;5.398;2022-07-21T12:09:28;13.02;;;8.05;;
46651;SDS011;32377;52.182;5.398;2022-07-21T12:11:54;12.05;;;7.63;;
46651;SDS011;32377;52.182;5.398;2022-07-21T12:14:20;10.43;;;7.75;;
46651;SDS011;32377;52.182;5.398;2022-07-21T12:17:02;10.63;;;8.20;;
46651;SDS011;32377;52.182;5.398;2022-07-21T12:19:28;13.73;;;8.73;;
46651;SDS011;32377;52.182;5.398;2022-07-21T12:21:54;12.98;;;8.50;;
46651;SDS011;32377;52.182;5.398;2022-07-21T12:24:20;9.02;;;7.90;;
46651;SDS011;32377;52.182;5.398;2022-07-21T12:26:46;10.65;;;7.43;;
46651;SDS011;32377;52.182;5.398;2022-07-21T12:29:26;10.43;;;7.18;;
46651;SDS011;32377;52.182;5.398;2022-07-21T12:31:52;8.68;;;6.78;;
46651;SDS011;32377;52.182;5.398;2022-07-21T12:34:18;11.40;;;7.82;;
46651;SDS011;32377;52.182;5.398;2022-07-21T12:36:44;9.35;;;7.45;;
46651;SDS011;32377;52.182;5.398;2022-07-21T12:42:03;11.55;;;6.47;;
46651;SDS011;32377;52.182;5.398;2022-07-21T12:44:34;8.20;;;6.20;;
46651;SDS011;32377;52.182;5.398;2022-07-21T12:47:17;6.80;;;5.82;;
46651;SDS011;32377;52.182;5.398;2022-07-21T12:49:55;12.25;;;6.80;;
46651;SDS011;32377;52.182;5.398;2022-07-21T12:52:22;11.55;;;6.72;;
46651;SDS011;32377;52.182;5.398;2022-07-21T12:54:49;8.98;;;6.10;;
46651;SDS011;32377;52.182;5.398;2022-07-21T12:57:14;7.47;;;5.72;;
46651;SDS011;32377;52.182;5.398;2022-07-21T12:59:40;8.52;;;5.90;;
46651;SDS011;32377;52.182;5.398;2022-07-21T13:02:06;7.47;;;5.97;;
46651;SDS011;32377;52.182;5.398;2022-07-21T13:04:31;7.65;;;5.82;;
46651;SDS011;32377;52.182;5.398;2022-07-21T13:06:57;6.38;;;5.32;;
46651;SDS011;32377;52.182;5.398;2022-07-21T13:09:22;6.22;;;5.63;;
46651;SDS011;32377;52.182;5.398;2022-07-21T13:11:48;7.88;;;5.47;;
46651;SDS011;32377;52.182;5.398;2022-07-21T13:14:13;10.35;;;6.28;;
46651;SDS011;32377;52.182;5.398;2022-07-21T13:16:39;8.43;;;5.68;;
46651;SDS011;32377;52.182;5.398;2022-07-21T13:19:04;8.63;;;6.22;;
46651;SDS011;32377;52.182;5.398;2022-07-21T13:21:31;6.03;;;5.43;;
46651;SDS011;32377;52.182;5.398;2022-07-21T13:23:57;7.25;;;5.43;;
46651;SDS011;32377;52.182;5.398;2022-07-21T13:26:22;7.07;;;5.35;;
46651;SDS011;32377;52.182;5.398;2022-07-21T13:28:48;7.32;;;4.88;;
46651;SDS011;32377;52.182;5.398;2022-07-21T13:31:14;6.57;;;5.28;;
46651;SDS011;32377;52.182;5.398;2022-07-21T13:33:40;5.10;;;4.60;;
46651;SDS011;32377;52.182;5.398;2022-07-21T13:36:06;5.85;;;4.35;;
46651;SDS011;32377;52.182;5.398;2022-07-21T13:38:33;6.13;;;3.80;;
46651;SDS011;32377;52.182;5.398;2022-07-21T13:40:59;4.80;;;4.30;;
46651;SDS011;32377;52.182;5.398;2022-07-21T13:43:25;5.40;;;3.78;;
46651;SDS011;32377;52.182;5.398;2022-07-21T13:45:51;7.20;;;3.85;;
46651;SDS011;32377;52.182;5.398;2022-07-21T13:48:16;4.18;;;3.78;;
46651;SDS011;32377;52.182;5.398;2022-07-21T13:50:42;5.38;;;4.43;;
46651;SDS011;32377;52.182;5.398;2022-07-21T13:53:08;4.40;;;4.00;;
46651;SDS011;32377;52.182;5.398;2022-07-21T13:55:33;6.90;;;3.85;;
46651;SDS011;32377;52.182;5.398;2022-07-21T13:57:59;6.57;;;4.60;;
46651;SDS011;32377;52.182;5.398;2022-07-21T14:00:25;5.47;;;3.03;;
46651;SDS011;32377;52.182;5.398;2022-07-21T14:02:51;4.03;;;3.20;;
46651;SDS011;32377;52.182;5.398;2022-07-21T14:05:16;8.05;;;3.80;;
46651;SDS011;32377;52.182;5.398;2022-07-21T14:07:42;5.32;;;3.50;;
46651;SDS011;32377;52.182;5.398;2022-07-21T14:10:08;5.43;;;4.10;;
46651;SDS011;32377;52.182;5.398;2022-07-21T14:12:34;6.00;;;3.63;;
46651;SDS011;32377;52.182;5.398;2022-07-21T14:15:00;4.95;;;3.50;;
46651;SDS011;32377;52.182;5.398;2022-07-21T14:17:26;6.53;;;3.55;;
46651;SDS011;32377;52.182;5.398;2022-07-21T14:19:51;7.50;;;3.70;;
46651;SDS011;32377;52.182;5.398;2022-07-21T14:22:17;7.35;;;4.05;;
46651;SDS011;32377;52.182;5.398;2022-07-21T14:24:46;4.63;;;3.63;;
46651;SDS011;32377;52.182;5.398;2022-07-21T14:27:30;7.05;;;3.80;;
46651;SDS011;32377;52.182;5.398;2022-07-21T14:29:56;7.00;;;4.05;;
46651;SDS011;32377;52.182;5.398;2022-07-21T14:32:22;5.80;;;3.95;;
46651;SDS011;32377;52.182;5.398;2022-07-21T14:34:48;6.57;;;4.32;;
46651;SDS011;32377;52.182;5.398;2022-07-21T14:37:15;7.47;;;4.75;;
46651;SDS011;32377;52.182;5.398;2022-07-21T14:39:41;7.47;;;5.25;;
46651;SDS011;32377;52.182;5.398;2022-07-21T14:42:07;6.80;;;4.95;;
46651;SDS011;32377;52.182;5.398;2022-07-21T14:44:34;5.70;;;5.10;;
46651;SDS011;32377;52.182;5.398;2022-07-21T14:46:59;6.20;;;5.00;;
46651;SDS011;32377;52.182;5.398;2022-07-21T14:49:25;7.75;;;5.13;;
46651;SDS011;32377;52.182;5.398;2022-07-21T14:51:51;6.38;;;5.60;;
46651;SDS011;32377;52.182;5.398;2022-07-21T14:54:16;7.13;;;5.80;;
46651;SDS011;32377;52.182;5.398;2022-07-21T14:56:42;7.05;;;6.10;;
46651;SDS011;32377;52.182;5.398;2022-07-21T14:59:10;6.72;;;6.13;;
46651;SDS011;32377;52.182;5.398;2022-07-21T15:01:35;9.95;;;6.85;;
46651;SDS011;32377;52.182;5.398;2022-07-21T15:04:01;7.25;;;6.55;;
46651;SDS011;32377;52.182;5.398;2022-07-21T15:06:26;8.95;;;7.90;;
46651;SDS011;32377;52.182;5.398;2022-07-21T15:08:52;8.77;;;7.90;;
46651;SDS011;32377;52.182;5.398;2022-07-21T15:11:17;15.43;;;9.35;;